Terminal Aerodrome Forecast
Issued by NWS Cleveland, OH

Home | Current Version | Previous Version | Graphics & Text | Print | Product List | Glossary On
Versions: 1 2 3 4 5 6 7 8 9 10 11 12 13 14 15 16 17 18 19 20 21 22 23 24 25 26 27 28
000
FTUS41 KCLE 010400 AAB
TAFMFD
TAF AMD
KMFD 010411Z 0104/0124 15005KT 1 1/2SM -SN SCT012 OVC020
      TEMPO 0104/0106 3/4SM -SN BKN008 OVC015
     FM010600 17005KT 3/4SM -SN OVC008
     FM011600 22007KT 2SM -SN BKN008 OVC012
     FM012000 24005KT 4SM -SN BKN008 OVC012=

USA.gov is the U.S. government's official web portal to all federal, state and local government web resources and services.